Jefferson, North Carolina
Current Conditions -  °F | °C
As of 2:15 PM on Saturday 20 Dec 2014 (Local Time) from KGEV Reporting Station
Overcast Overcast  
Wind Chill: 38°   Ceiling: 2000
Heat Index: 38°   Visibility: 10mi
Dew Point: 29°   Wind: 0mph
Humidity: 68%   Direction: NA
Pressure: 30.11"   Gusts: NA
Location:  36.42°N, 81.47°W
Report Text: KGEV 201915Z AUTO 00000KT 10SM OVC020 04/M02 A3011 RMK AO2 T00361019
Loading
Personal Weather Stations






























Interactive Weather Map New forecast layout! Learn more

10-Day Weather Forecast

Advertisements
Track Severe Weather on mobile